createdAt,value
2018-09-25T00:01:28.636Z,6.40
2018-09-25T00:04:02.522Z,6.40
2018-09-25T00:06:36.257Z,6.50
2018-09-25T00:09:13.747Z,6.40
2018-09-25T00:11:48.785Z,6.50
2018-09-25T00:14:22.506Z,6.30
2018-09-25T00:16:56.277Z,6.30
2018-09-25T00:19:29.987Z,6.30
2018-09-25T00:22:03.870Z,6.30
2018-09-25T00:24:37.869Z,6.50
2018-09-25T00:27:12.299Z,6.50
2018-09-25T00:29:46.165Z,6.50
2018-09-25T00:37:26.728Z,6.50
2018-09-25T00:40:00.638Z,6.50
2018-09-25T00:42:34.533Z,6.50
2018-09-25T00:45:08.265Z,6.50
2018-09-25T00:47:42.194Z,6.50
2018-09-25T00:50:16.025Z,6.50
2018-09-25T00:52:50.155Z,6.50
2018-09-25T00:55:23.858Z,6.50
2018-09-25T00:57:58.049Z,6.40
2018-09-25T01:00:31.633Z,6.50
2018-09-25T01:03:05.638Z,6.50
2018-09-25T01:05:39.346Z,6.50
2018-09-25T01:08:13.098Z,6.50
2018-09-25T01:10:46.966Z,6.50
2018-09-25T01:18:27.818Z,6.60
2018-09-25T01:21:01.592Z,6.50
2018-09-25T01:23:35.261Z,6.40
2018-09-25T01:26:09.014Z,6.40
2018-09-25T01:28:43.445Z,6.40
2018-09-25T01:31:17.338Z,6.50
2018-09-25T01:33:51.405Z,6.50
2018-09-25T01:36:25.145Z,6.40
2018-09-25T01:38:59.143Z,6.50
2018-09-25T01:41:32.888Z,6.60
2018-09-25T01:44:07.094Z,6.60
2018-09-25T01:46:40.969Z,6.50
2018-09-25T01:49:15.266Z,6.50
2018-09-25T01:51:48.973Z,6.40
2018-09-25T01:54:23.136Z,6.30
2018-09-25T01:56:56.961Z,6.20
2018-09-25T01:59:30.581Z,6.30
2018-09-25T02:02:04.415Z,6.30
2018-09-25T02:04:38.530Z,6.30
2018-09-25T02:07:12.345Z,6.40
2018-09-25T02:09:46.120Z,6.50
2018-09-25T02:17:23.753Z,6.50
2018-09-25T02:19:57.973Z,6.40
2018-09-25T02:22:32.304Z,6.40
2018-09-25T02:25:06.093Z,6.40
2018-09-25T02:27:40.764Z,6.30
2018-09-25T02:30:15.430Z,6.40
2018-09-25T02:32:49.199Z,6.40
2018-09-25T02:35:23.114Z,6.50
2018-09-25T02:37:57.170Z,6.50
2018-09-25T02:40:30.916Z,6.40
2018-09-25T02:43:04.934Z,6.40
2018-09-25T02:45:38.790Z,6.20
2018-09-25T02:48:12.669Z,6.10
2018-09-25T02:50:46.446Z,6.00
2018-09-25T02:58:22.801Z,5.90
2018-09-25T03:00:56.839Z,5.80
2018-09-25T03:03:31.105Z,5.80
2018-09-25T03:06:04.871Z,5.80
2018-09-25T03:08:38.966Z,5.90
2018-09-25T03:11:12.679Z,5.90
2018-09-25T03:13:46.562Z,5.80
2018-09-25T03:21:20.407Z,5.80
2018-09-25T03:23:54.136Z,5.90
2018-09-25T03:26:27.928Z,5.90
2018-09-25T03:29:01.881Z,6.00
2018-09-25T03:31:36.873Z,5.90
2018-09-25T03:34:10.712Z,6.10
2018-09-25T03:36:44.545Z,6.10
2018-09-25T03:39:18.358Z,6.10
2018-09-25T03:41:52.227Z,5.90
2018-09-25T03:44:25.991Z,5.90
2018-09-25T03:47:00.324Z,5.80
2018-09-25T03:49:33.962Z,5.70
2018-09-25T03:52:07.916Z,5.80
2018-09-25T03:54:42.379Z,5.80
2018-09-25T03:57:16.391Z,5.80
2018-09-25T03:59:50.175Z,5.90
2018-09-25T04:02:24.339Z,5.80
2018-09-25T04:04:58.101Z,5.70
2018-09-25T04:07:32.249Z,5.60
2018-09-25T04:10:06.075Z,5.60
2018-09-25T04:12:40.047Z,5.70
2018-09-25T04:15:13.937Z,5.70
2018-09-25T04:17:48.856Z,5.70
2018-09-25T04:20:22.711Z,5.70
2018-09-25T04:22:56.594Z,5.70
2018-09-25T04:25:30.421Z,5.60
2018-09-25T04:28:04.278Z,5.60
2018-09-25T04:30:38.090Z,5.70
2018-09-25T04:33:12.874Z,5.60
2018-09-25T04:35:46.762Z,5.60
2018-09-25T04:43:26.577Z,5.50
2018-09-25T04:46:00.403Z,5.40
2018-09-25T04:48:34.115Z,5.50
2018-09-25T04:51:08.066Z,5.50
2018-09-25T04:53:41.883Z,5.40
2018-09-25T04:56:16.021Z,5.50
2018-09-25T04:58:49.946Z,5.50
2018-09-25T05:01:23.613Z,5.60
2018-09-25T05:03:57.985Z,5.60
2018-09-25T05:06:31.788Z,5.50
2018-09-25T05:09:05.578Z,5.60
2018-09-25T05:11:39.326Z,5.60
2018-09-25T05:14:13.184Z,5.60
2018-09-25T05:16:46.953Z,5.60
2018-09-25T05:24:26.106Z,5.60
2018-09-25T05:27:00.279Z,5.60
2018-09-25T05:29:34.516Z,5.70
2018-09-25T05:32:08.356Z,5.70
2018-09-25T05:34:42.669Z,5.70
2018-09-25T05:37:16.899Z,5.80
2018-09-25T05:39:51.498Z,5.80
2018-09-25T05:42:25.269Z,5.70
2018-09-25T05:44:59.210Z,5.80
2018-09-25T05:47:32.971Z,5.90
2018-09-25T05:50:06.701Z,5.80
2018-09-25T05:52:40.631Z,6.00
2018-09-25T05:55:14.690Z,6.20
2018-09-25T05:57:48.540Z,6.30
2018-09-25T06:00:23.027Z,6.30
2018-09-25T06:02:56.906Z,6.40
2018-09-25T06:05:30.846Z,6.50
2018-09-25T06:08:04.698Z,6.70
2018-09-25T06:10:39.171Z,6.80
2018-09-25T06:13:12.878Z,7.10
2018-09-25T06:15:46.807Z,7.30
2018-09-25T06:23:25.257Z,7.60
2018-09-25T06:25:59.448Z,7.80
2018-09-25T06:28:33.417Z,8.10
2018-09-25T06:31:07.079Z,8.50
2018-09-25T06:33:40.838Z,8.80
2018-09-25T06:36:15.274Z,9.10
2018-09-25T06:38:49.013Z,9.30
2018-09-25T06:41:22.847Z,9.30
2018-09-25T06:43:56.799Z,9.20
2018-09-25T06:46:30.558Z,9.20
2018-09-25T06:49:04.206Z,9.00
2018-09-25T06:51:38.139Z,8.80
2018-09-25T06:54:12.022Z,8.60
2018-09-25T06:56:45.800Z,8.40
2018-09-25T07:04:21.926Z,8.00
2018-09-25T07:06:55.756Z,8.30
2018-09-25T07:09:29.977Z,9.20
2018-09-25T07:12:03.886Z,11.20
2018-09-25T07:14:37.634Z,13.10
2018-09-25T07:17:11.607Z,14.30
2018-09-25T07:19:46.295Z,15.10
2018-09-25T07:27:26.430Z,17.90
2018-09-25T07:30:00.233Z,18.60
2018-09-25T07:32:34.015Z,19.70
2018-09-25T07:35:08.107Z,20.50
2018-09-25T07:37:43.461Z,20.40
2018-09-25T07:40:17.186Z,21.10
2018-09-25T07:42:50.853Z,21.30
2018-09-25T07:47:58.082Z,22.60
2018-09-25T07:50:31.859Z,22.20
2018-09-25T07:53:06.145Z,22.40
2018-09-25T07:55:40.812Z,21.70
2018-09-25T07:58:14.656Z,21.60
2018-09-25T08:00:48.430Z,21.60
2018-09-25T08:03:22.612Z,21.80
2018-09-25T08:05:56.511Z,21.90
2018-09-25T08:08:31.173Z,22.60
2018-09-25T08:11:04.954Z,23.30
2018-09-25T08:13:38.649Z,23.70
2018-09-25T08:16:12.840Z,23.50
2018-09-25T08:18:46.570Z,23.10
2018-09-25T08:26:22.738Z,22.80
2018-09-25T08:28:57.560Z,22.70
2018-09-25T08:31:31.427Z,23.80
2018-09-25T08:34:05.034Z,23.10
2018-09-25T08:36:38.816Z,22.00
2018-09-25T08:39:14.721Z,20.10
2018-09-25T08:41:49.726Z,18.90
2018-09-25T08:44:23.566Z,19.80
2018-09-25T08:46:57.367Z,21.40
2018-09-25T08:49:30.990Z,22.50
2018-09-25T08:52:05.206Z,23.90
2018-09-25T08:54:38.961Z,24.70
2018-09-25T08:57:13.441Z,24.90
2018-09-25T08:59:47.222Z,25.00
2018-09-25T09:07:24.702Z,26.50
2018-09-25T09:09:58.572Z,23.00
2018-09-25T09:12:32.986Z,23.00
2018-09-25T09:15:06.718Z,23.00
2018-09-25T09:17:40.408Z,23.10
2018-09-25T09:20:14.465Z,24.10
2018-09-25T09:22:48.384Z,24.80
2018-09-25T09:25:22.698Z,26.00
2018-09-25T09:27:57.165Z,26.20
2018-09-25T09:30:30.779Z,26.40
2018-09-25T09:33:04.748Z,26.70
2018-09-25T09:35:38.418Z,27.40
2018-09-25T09:38:12.414Z,27.90
2018-09-25T09:40:46.642Z,27.30
2018-09-25T09:48:23.615Z,26.80
2018-09-25T09:50:57.494Z,27.20
2018-09-25T09:53:31.495Z,28.40
2018-09-25T09:56:05.443Z,27.60
2018-09-25T09:58:40.279Z,26.70
2018-09-25T10:01:14.158Z,24.60
2018-09-25T10:03:48.281Z,24.00
2018-09-25T10:06:22.566Z,23.40
2018-09-25T10:08:56.349Z,22.10
2018-09-25T10:11:30.075Z,21.00
2018-09-25T10:14:03.853Z,20.30
2018-09-25T10:16:37.733Z,19.40
2018-09-25T10:19:12.151Z,18.60
2018-09-25T10:21:46.188Z,17.80
2018-09-25T10:29:23.080Z,16.70
2018-09-25T10:31:56.958Z,16.30
2018-09-25T10:34:30.969Z,16.20
2018-09-25T10:37:04.705Z,15.60
2018-09-25T10:39:38.608Z,14.90
2018-09-25T10:42:13.623Z,14.50
2018-09-25T10:44:47.734Z,14.40
2018-09-25T10:47:22.940Z,14.20
2018-09-25T10:49:56.968Z,14.10
2018-09-25T10:52:30.755Z,14.00
2018-09-25T10:55:04.704Z,13.70
2018-09-25T10:57:38.378Z,13.40
2018-09-25T11:00:12.282Z,13.30
2018-09-25T11:02:46.214Z,13.40
2018-09-25T11:10:25.740Z,13.50
2018-09-25T11:12:59.512Z,13.60
2018-09-25T11:15:33.464Z,13.50
2018-09-25T11:18:08.638Z,13.60
2018-09-25T11:20:42.401Z,13.70
2018-09-25T11:23:16.106Z,13.60
2018-09-25T11:25:50.776Z,13.80
2018-09-25T11:28:24.587Z,13.40
2018-09-25T11:30:58.787Z,13.20
2018-09-25T11:33:33.190Z,13.60
2018-09-25T11:36:06.834Z,13.80
2018-09-25T11:38:40.638Z,13.90
2018-09-25T11:41:14.728Z,13.90
2018-09-25T11:43:49.013Z,13.90
2018-09-25T11:46:23.084Z,13.90
2018-09-25T11:48:56.862Z,14.00
2018-09-25T11:51:30.745Z,14.10
2018-09-25T11:54:04.585Z,14.30
2018-09-25T11:56:38.418Z,14.20
2018-09-25T11:59:12.743Z,13.80
2018-09-25T12:01:46.526Z,13.60
2018-09-25T12:09:25.863Z,13.30
2018-09-25T12:11:59.791Z,12.80
2018-09-25T12:14:34.507Z,12.60
2018-09-25T12:17:08.398Z,12.60
2018-09-25T12:19:43.220Z,12.90
2018-09-25T12:22:17.146Z,13.00
2018-09-25T12:24:51.102Z,13.10
2018-09-25T12:27:24.894Z,13.30
2018-09-25T12:29:59.011Z,13.40
2018-09-25T12:32:33.029Z,13.50
2018-09-25T12:35:07.107Z,13.40
2018-09-25T12:37:40.822Z,13.20
2018-09-25T12:40:14.558Z,13.00
2018-09-25T12:42:48.337Z,12.90
2018-09-25T12:45:23.818Z,12.80
2018-09-25T12:47:57.638Z,12.80
2018-09-25T12:50:31.567Z,12.90
2018-09-25T12:53:05.374Z,13.00
2018-09-25T12:55:39.090Z,13.00
2018-09-25T12:58:12.983Z,13.00
2018-09-25T13:00:47.302Z,13.10
2018-09-25T13:08:23.327Z,13.50
2018-09-25T13:10:56.999Z,13.50
2018-09-25T13:13:30.809Z,13.40
2018-09-25T13:16:04.759Z,13.40
2018-09-25T13:18:38.757Z,13.40
2018-09-25T13:21:12.616Z,13.40
2018-09-25T13:23:47.064Z,13.50
2018-09-25T13:31:20.280Z,13.60
2018-09-25T13:33:54.165Z,13.50
2018-09-25T13:36:28.615Z,13.60
2018-09-25T13:39:02.554Z,13.60
2018-09-25T13:41:36.322Z,13.70
2018-09-25T13:44:10.234Z,13.80
2018-09-25T13:46:45.000Z,13.80
2018-09-25T13:54:18.669Z,13.70
2018-09-25T13:56:52.541Z,13.50
2018-09-25T13:59:26.353Z,13.50
2018-09-25T14:02:00.070Z,13.30
2018-09-25T14:04:33.850Z,13.20
2018-09-25T14:07:07.490Z,13.00
2018-09-25T14:09:41.490Z,12.90
2018-09-25T14:12:15.484Z,12.80
2018-09-25T14:14:49.282Z,12.60
2018-09-25T14:17:22.997Z,12.60
2018-09-25T14:19:56.686Z,12.50
2018-09-25T14:22:30.419Z,12.70
2018-09-25T14:25:04.741Z,12.80
2018-09-25T14:27:38.487Z,12.90
2018-09-25T14:30:12.401Z,13.00
2018-09-25T14:32:46.442Z,13.10
2018-09-25T14:40:25.606Z,13.00
2018-09-25T14:42:59.380Z,12.90
2018-09-25T14:45:33.325Z,12.90
2018-09-25T14:48:09.698Z,12.90
2018-09-25T14:50:43.681Z,12.90
2018-09-25T14:53:17.532Z,12.80
2018-09-25T14:55:51.768Z,12.80
2018-09-25T14:58:25.668Z,12.80
2018-09-25T15:00:59.635Z,12.80
2018-09-25T15:03:33.812Z,12.80
2018-09-25T15:06:07.564Z,12.80
2018-09-25T15:08:41.687Z,12.80
2018-09-25T15:11:16.111Z,12.70
2018-09-25T15:13:50.900Z,12.70
2018-09-25T15:16:24.897Z,12.60
2018-09-25T15:18:59.085Z,12.60
2018-09-25T15:21:33.106Z,12.60
2018-09-25T15:24:06.812Z,12.60
2018-09-25T15:26:42.400Z,12.70
2018-09-25T15:29:16.623Z,12.70
2018-09-25T15:31:50.630Z,12.70
2018-09-25T15:34:24.382Z,12.70
2018-09-25T15:36:58.230Z,12.60
2018-09-25T15:39:33.010Z,12.60
2018-09-25T15:42:07.823Z,12.50
2018-09-25T15:44:41.499Z,12.50
2018-09-25T15:47:15.382Z,12.40
2018-09-25T15:49:50.573Z,12.40
2018-09-25T15:52:24.938Z,12.40
2018-09-25T15:54:58.789Z,12.40
2018-09-25T15:57:33.283Z,12.30
2018-09-25T16:00:07.233Z,12.20
2018-09-25T16:02:40.994Z,12.10
2018-09-25T16:05:14.838Z,12.00
2018-09-25T16:07:48.615Z,11.90
2018-09-25T16:10:22.914Z,11.90
2018-09-25T16:12:57.303Z,11.80
2018-09-25T16:15:31.335Z,11.70
2018-09-25T16:18:05.181Z,11.70
2018-09-25T16:20:38.944Z,11.60
2018-09-25T16:23:12.690Z,11.50
2018-09-25T16:25:47.458Z,11.40
2018-09-25T16:33:22.871Z,11.40
2018-09-25T16:35:57.386Z,11.20
2018-09-25T16:38:31.505Z,11.20
2018-09-25T16:41:05.217Z,11.10
2018-09-25T16:43:38.926Z,11.10
2018-09-25T16:46:12.902Z,11.00
2018-09-25T16:48:46.704Z,11.00
2018-09-25T16:56:27.566Z,10.80
2018-09-25T17:26:41.909Z,10.60
2018-09-25T17:29:16.332Z,10.60
2018-09-25T17:31:50.319Z,10.60
2018-09-25T17:34:24.530Z,10.50
2018-09-25T17:36:59.405Z,10.30
2018-09-25T17:39:33.475Z,10.20
2018-09-25T17:42:07.696Z,10.10
2018-09-25T17:44:41.615Z,9.90
2018-09-25T17:47:15.508Z,9.80
2018-09-25T17:49:50.318Z,9.70
2018-09-25T17:52:25.198Z,9.60
2018-09-25T17:54:58.988Z,9.50
2018-09-25T17:57:33.661Z,9.30
2018-09-25T18:00:07.520Z,9.40
2018-09-25T18:02:41.498Z,9.40
2018-09-25T18:05:15.515Z,9.30
2018-09-25T18:07:49.447Z,9.20
2018-09-25T18:13:40.421Z,9.10
2018-09-25T18:16:14.191Z,9.10
2018-09-25T18:18:48.095Z,8.90
2018-09-25T18:21:22.972Z,8.90
2018-09-25T18:23:57.022Z,8.90
2018-09-25T18:26:30.818Z,8.80
2018-09-25T18:29:04.811Z,8.80
2018-09-25T18:31:38.543Z,8.70
2018-09-25T18:34:12.319Z,8.60
2018-09-25T18:36:46.163Z,8.50
2018-09-25T18:44:23.159Z,8.50
2018-09-25T18:46:56.848Z,8.40
2018-09-25T18:49:30.747Z,8.30
2018-09-25T18:52:04.654Z,8.30
2018-09-25T18:54:39.618Z,8.20
2018-09-25T18:57:13.532Z,8.20
2018-09-25T18:59:47.821Z,8.10
2018-09-25T19:02:22.695Z,8.20
2018-09-25T19:04:57.068Z,8.10
2018-09-25T19:07:31.004Z,8.10
2018-09-25T19:10:04.971Z,7.90
2018-09-25T19:12:38.982Z,7.90
2018-09-25T19:15:13.636Z,7.80
2018-09-25T19:17:47.784Z,7.80
2018-09-25T19:25:21.038Z,7.80
2018-09-25T19:27:55.562Z,7.70
2018-09-25T19:30:31.567Z,7.70
2018-09-25T19:33:05.523Z,7.70
2018-09-25T19:35:39.211Z,7.70
2018-09-25T19:38:13.004Z,7.70
2018-09-25T19:40:46.715Z,7.60
2018-09-25T19:48:26.813Z,7.60
2018-09-25T19:51:00.602Z,7.50
2018-09-25T19:53:34.385Z,7.50
2018-09-25T19:56:09.036Z,7.60
2018-09-25T19:58:42.794Z,7.60
2018-09-25T20:01:16.509Z,7.50
2018-09-25T20:03:50.977Z,7.50
2018-09-25T20:06:25.109Z,7.40
2018-09-25T20:08:58.938Z,7.50
2018-09-25T20:11:32.719Z,7.40
2018-09-25T20:14:06.628Z,7.40
2018-09-25T20:16:40.374Z,7.50
2018-09-25T20:19:15.298Z,7.40
2018-09-25T20:21:49.531Z,7.40
2018-09-25T20:24:23.455Z,7.40
2018-09-25T20:26:57.241Z,7.40
2018-09-25T20:29:31.055Z,7.40
2018-09-25T20:32:04.794Z,7.40
2018-09-25T20:34:39.147Z,7.40
2018-09-25T20:37:12.995Z,7.40
2018-09-25T20:39:46.753Z,7.30
2018-09-25T20:47:20.690Z,7.20
2018-09-25T20:49:54.472Z,6.90
2018-09-25T20:52:29.637Z,6.90
2018-09-25T20:55:03.607Z,6.80
2018-09-25T20:57:37.978Z,6.70
2018-09-25T21:00:12.538Z,6.80
2018-09-25T21:02:46.307Z,6.80
2018-09-25T21:10:25.678Z,6.80
2018-09-25T21:12:59.615Z,6.70
2018-09-25T21:15:39.864Z,6.70
2018-09-25T21:18:13.750Z,6.70
2018-09-25T21:20:47.866Z,6.60
2018-09-25T21:23:22.570Z,6.60
2018-09-25T21:25:56.901Z,6.70
2018-09-25T21:28:30.784Z,6.70
2018-09-25T21:31:04.557Z,6.70
2018-09-25T21:33:38.491Z,6.70
2018-09-25T21:36:12.462Z,6.70
2018-09-25T21:38:46.331Z,6.80
2018-09-25T21:46:24.431Z,6.60
2018-09-25T21:48:59.273Z,6.50
2018-09-25T21:51:33.209Z,6.50
2018-09-25T21:54:06.747Z,6.40
2018-09-25T21:56:40.649Z,6.40
2018-09-25T21:59:15.483Z,6.40
2018-09-25T22:01:49.607Z,6.40
2018-09-25T22:04:23.362Z,6.40
2018-09-25T22:06:57.187Z,6.30
2018-09-25T22:09:31.045Z,6.30
2018-09-25T22:12:04.954Z,6.20
2018-09-25T22:14:38.752Z,6.20
2018-09-25T22:17:13.191Z,6.20
2018-09-25T22:19:47.111Z,6.10
2018-09-25T22:22:22.600Z,6.10
2018-09-25T22:24:56.556Z,6.10
2018-09-25T22:27:30.375Z,6.00
2018-09-25T22:30:04.234Z,6.00
2018-09-25T22:32:38.329Z,5.90
2018-09-25T22:35:12.331Z,5.90
2018-09-25T22:37:46.253Z,6.00
2018-09-25T22:45:24.349Z,5.90
2018-09-25T22:47:58.250Z,5.80
2018-09-25T22:50:31.979Z,5.80
2018-09-25T22:53:05.698Z,5.80
2018-09-25T22:55:40.502Z,5.70
2018-09-25T22:58:14.230Z,5.70
2018-09-25T23:00:49.532Z,5.60
2018-09-25T23:03:23.201Z,5.50
2018-09-25T23:05:57.753Z,5.50
2018-09-25T23:08:31.402Z,5.50
2018-09-25T23:11:05.275Z,5.40
2018-09-25T23:13:38.958Z,5.40
2018-09-25T23:16:13.259Z,5.40
2018-09-25T23:18:47.028Z,5.40
2018-09-25T23:26:26.517Z,5.50
2018-09-25T23:29:00.365Z,5.40
2018-09-25T23:31:34.416Z,5.40
2018-09-25T23:34:08.328Z,5.40
2018-09-25T23:36:42.179Z,5.40
2018-09-25T23:39:16.331Z,5.40
2018-09-25T23:41:53.184Z,5.30
2018-09-25T23:44:26.999Z,5.30
2018-09-25T23:47:02.212Z,5.20
2018-09-25T23:49:34.352Z,5.30
2018-09-25T23:52:08.229Z,5.30
2018-09-25T23:54:49.309Z,5.20
2018-09-25T23:57:20.773Z,5.20
2018-09-25T23:59:54.785Z,5.10
